createdAt,value
2023-01-06T00:00:22.290Z,538.8
2023-01-06T00:01:24.274Z,538.9
2023-01-06T00:02:27.264Z,538.8
2023-01-06T00:03:29.239Z,539
2023-01-06T00:04:31.563Z,539.3
2023-01-06T00:05:33.837Z,539
2023-01-06T00:06:36.373Z,539
2023-01-06T00:07:39.234Z,539.1
2023-01-06T00:08:41.742Z,538.7
2023-01-06T00:09:44.246Z,539.2
2023-01-06T00:10:46.480Z,539.4
2023-01-06T00:11:48.987Z,539.6
2023-01-06T00:12:51.380Z,539.4
2023-01-06T00:13:53.404Z,539.8
2023-01-06T00:14:55.926Z,539.8
2023-01-06T00:15:58.750Z,539.6
2023-01-06T00:17:01.302Z,539.7
2023-01-06T00:18:03.836Z,539.8
2023-01-06T00:19:06.065Z,539.9
2023-01-06T00:20:08.718Z,539.9
2023-01-06T00:21:10.672Z,540.2
2023-01-06T00:22:13.186Z,540.7
2023-01-06T00:23:15.788Z,540.8
2023-01-06T00:24:18.293Z,540.5
2023-01-06T00:25:20.277Z,541
2023-01-06T00:26:22.792Z,541.1
2023-01-06T00:27:25.026Z,541.3
2023-01-06T00:28:27.669Z,541.5
2023-01-06T00:29:30.163Z,542.1
2023-01-06T00:30:32.438Z,541.9
2023-01-06T00:31:35.213Z,541.6
2023-01-06T00:32:37.759Z,541.9
2023-01-06T00:33:40.023Z,542.4
2023-01-06T00:34:42.270Z,541.9
2023-01-06T00:35:44.906Z,542
2023-01-06T00:36:47.198Z,541.9
2023-01-06T00:37:49.441Z,542.1
2023-01-06T00:38:52.476Z,541.7
2023-01-06T00:39:54.981Z,542
2023-01-06T00:40:57.523Z,541.9
2023-01-06T00:41:59.749Z,541.9
2023-01-06T00:43:01.723Z,542.2
2023-01-06T00:44:04.170Z,542
2023-01-06T00:45:06.418Z,541.4
2023-01-06T00:46:09.251Z,542.1
2023-01-06T00:47:11.835Z,542
2023-01-06T00:48:14.366Z,542.1
2023-01-06T00:49:16.363Z,541.9
2023-01-06T00:50:18.575Z,541.8
2023-01-06T00:51:21.200Z,542
2023-01-06T00:52:23.421Z,542
2023-01-06T00:53:25.934Z,542
2023-01-06T00:54:28.783Z,541.9
2023-01-06T00:55:31.349Z,542.7
2023-01-06T00:56:34.056Z,542.5
2023-01-06T00:57:36.590Z,543
2023-01-06T00:58:38.836Z,542.7
2023-01-06T00:59:41.396Z,542.8
2023-01-06T01:00:43.429Z,543.1
2023-01-06T01:01:46.489Z,543.1
2023-01-06T01:02:48.747Z,543.2
2023-01-06T01:03:51.275Z,543.4
2023-01-06T01:04:53.236Z,543.5
2023-01-06T01:05:55.742Z,543.8
2023-01-06T01:06:58.391Z,543.7
2023-01-06T01:08:00.628Z,543.5
2023-01-06T01:09:03.242Z,543.6
2023-01-06T01:10:05.994Z,543.9
2023-01-06T01:11:08.496Z,543.7
2023-01-06T01:12:10.505Z,543.7
2023-01-06T01:13:12.789Z,544
2023-01-06T01:14:15.325Z,543.8
2023-01-06T01:15:17.992Z,543.7
2023-01-06T01:16:20.484Z,543.7
2023-01-06T01:17:23.019Z,544.1
2023-01-06T01:18:24.955Z,544
2023-01-06T01:19:27.497Z,544
2023-01-06T01:20:30.060Z,544.5
2023-01-06T01:21:32.003Z,544.2
2023-01-06T01:22:34.669Z,544.3
2023-01-06T01:23:36.892Z,544.7
2023-01-06T01:24:39.439Z,544.5
2023-01-06T01:25:42.343Z,544.1
2023-01-06T01:26:44.599Z,544.4
2023-01-06T01:27:46.863Z,545.1
2023-01-06T01:28:49.369Z,544.7
2023-01-06T01:29:51.594Z,544.5
2023-01-06T01:30:54.420Z,544.7
2023-01-06T01:31:56.963Z,544.5
2023-01-06T01:32:59.483Z,544.7
2023-01-06T01:34:02.092Z,544.7
2023-01-06T01:35:04.396Z,544.6
2023-01-06T01:36:06.331Z,545.1
2023-01-06T01:37:08.866Z,544.8
2023-01-06T01:38:11.192Z,544.8
2023-01-06T01:39:13.431Z,544.5
2023-01-06T01:40:15.960Z,544.5
2023-01-06T01:41:18.820Z,544.7
2023-01-06T01:42:21.343Z,544.8
2023-01-06T01:43:23.837Z,544.7
2023-01-06T01:44:25.805Z,544.6
2023-01-06T01:45:28.052Z,544.7
2023-01-06T01:46:31.041Z,544.9
2023-01-06T01:47:33.313Z,544.6
2023-01-06T01:48:35.595Z,544.8
2023-01-06T01:49:37.818Z,544.7
2023-01-06T01:50:40.319Z,544.9
2023-01-06T01:51:42.551Z,545
2023-01-06T01:52:45.027Z,545.1
2023-01-06T01:53:47.863Z,545.2
2023-01-06T01:54:50.107Z,544.8
2023-01-06T01:55:52.634Z,545.4
2023-01-06T01:56:55.254Z,545
2023-01-06T01:57:57.823Z,545.3
2023-01-06T01:59:00.050Z,545.4
2023-01-06T02:00:02.278Z,545.1
2023-01-06T02:01:04.919Z,545.1
2023-01-06T02:02:08.471Z,545.1
2023-01-06T02:03:10.945Z,545
2023-01-06T02:04:13.506Z,545.1
2023-01-06T02:05:16.005Z,545
2023-01-06T02:06:19.441Z,545.1
2023-01-06T02:07:21.841Z,545.1
2023-01-06T02:08:24.062Z,545.2
2023-01-06T02:09:26.731Z,545
2023-01-06T02:10:28.699Z,545.5
2023-01-06T02:11:31.203Z,545.8
2023-01-06T02:12:33.701Z,545.9
2023-01-06T02:13:36.237Z,546.2
2023-01-06T02:14:38.732Z,546.6
2023-01-06T02:15:41.389Z,546
2023-01-06T02:16:43.889Z,546.5
2023-01-06T02:17:46.523Z,546.9
2023-01-06T02:18:49.089Z,546.9
2023-01-06T02:19:51.603Z,546.8
2023-01-06T02:20:53.851Z,546.6
2023-01-06T02:21:56.360Z,546.8
2023-01-06T02:22:58.882Z,547
2023-01-06T02:24:01.145Z,546.7
2023-01-06T02:25:03.974Z,547.2
2023-01-06T02:26:06.485Z,547.3
2023-01-06T02:27:08.445Z,547.8
2023-01-06T02:28:11.289Z,547.4
2023-01-06T02:29:13.792Z,548.1
2023-01-06T02:30:16.320Z,548
2023-01-06T02:31:19.213Z,547.9
2023-01-06T02:32:21.744Z,548.4
2023-01-06T02:33:24.411Z,548.3
2023-01-06T02:34:26.916Z,548.5
2023-01-06T02:35:28.885Z,548.4
2023-01-06T02:36:31.386Z,548.6
2023-01-06T02:37:33.958Z,548.3
2023-01-06T02:38:36.489Z,548.5
2023-01-06T02:39:39.009Z,548.7
2023-01-06T02:40:41.642Z,548.6
2023-01-06T02:41:43.914Z,548.3
2023-01-06T02:42:46.409Z,548.8
2023-01-06T02:43:48.918Z,548.7
2023-01-06T02:44:51.447Z,548.5
2023-01-06T02:45:53.679Z,548.6
2023-01-06T02:46:56.190Z,548.5
2023-01-06T02:47:58.407Z,548.9
2023-01-06T02:49:01.033Z,548.9
2023-01-06T02:50:03.588Z,549.2
2023-01-06T02:51:06.109Z,549.4
2023-01-06T02:52:08.630Z,549.3
2023-01-06T02:53:10.610Z,549.2
2023-01-06T02:54:13.138Z,549
2023-01-06T02:55:15.352Z,549.2
2023-01-06T02:56:17.712Z,549.2
2023-01-06T02:57:19.929Z,549.3
2023-01-06T02:58:22.432Z,549.5
2023-01-06T02:59:25.318Z,549.5
2023-01-06T03:00:27.956Z,549.5
2023-01-06T03:01:31.053Z,549.6
2023-01-06T03:02:33.295Z,550.4
2023-01-06T03:03:35.852Z,550.5
2023-01-06T03:04:38.560Z,550.6
2023-01-06T03:05:41.143Z,550.4
2023-01-06T03:06:43.666Z,550.3
2023-01-06T03:07:46.169Z,550.5
2023-01-06T03:08:48.664Z,550.4
2023-01-06T03:09:51.156Z,550.1
2023-01-06T03:10:53.697Z,550.2
2023-01-06T03:11:56.344Z,550.3
2023-01-06T03:12:58.866Z,550.3
2023-01-06T03:14:01.121Z,550
2023-01-06T03:15:04.021Z,550.3
2023-01-06T03:16:06.788Z,550.4
2023-01-06T03:17:09.335Z,550.4
2023-01-06T03:18:11.321Z,550.7
2023-01-06T03:19:13.543Z,551.1
2023-01-06T03:20:16.162Z,551.1
2023-01-06T03:21:18.702Z,551.1
2023-01-06T03:22:21.179Z,551.2
2023-01-06T03:23:23.693Z,551.3
2023-01-06T03:24:25.951Z,551.4
2023-01-06T03:25:28.466Z,551.1
2023-01-06T03:26:30.749Z,550.8
2023-01-06T03:27:33.388Z,550.8
2023-01-06T03:28:35.882Z,550.8
2023-01-06T03:29:38.104Z,550.8
2023-01-06T03:30:40.584Z,551.5
2023-01-06T03:31:43.590Z,551.5
2023-01-06T03:32:46.096Z,551.3
2023-01-06T03:33:48.610Z,551.5
2023-01-06T03:34:50.884Z,551.1
2023-01-06T03:35:53.250Z,551.3
2023-01-06T03:36:55.207Z,551
2023-01-06T03:37:57.705Z,551.3
2023-01-06T03:38:59.663Z,550.9
2023-01-06T03:40:01.899Z,551.1
2023-01-06T03:41:04.404Z,551.5
2023-01-06T03:42:06.636Z,551.4
2023-01-06T03:43:08.999Z,551.2
2023-01-06T03:44:11.545Z,550.7
2023-01-06T03:45:13.511Z,551.1
2023-01-06T03:46:16.796Z,550.3
2023-01-06T03:47:19.065Z,550.7
2023-01-06T03:48:21.315Z,550.3
2023-01-06T03:49:23.838Z,550.4
2023-01-06T03:50:26.061Z,550.3
2023-01-06T03:51:28.741Z,550.4
2023-01-06T03:52:31.543Z,550.8
2023-01-06T03:53:33.487Z,550.3
2023-01-06T03:54:36.194Z,550.4
2023-01-06T03:55:38.716Z,550.2
2023-01-06T03:56:40.961Z,550.4
2023-01-06T03:57:43.231Z,550
2023-01-06T03:58:45.565Z,549.8
2023-01-06T03:59:47.814Z,549.8
2023-01-06T04:00:50.568Z,550.3
2023-01-06T04:01:53.820Z,550
2023-01-06T04:02:56.384Z,549.9
2023-01-06T04:03:59.279Z,550.4
2023-01-06T04:05:01.805Z,549.8
2023-01-06T04:06:03.491Z,549.9
2023-01-06T04:07:06.109Z,550.2
2023-01-06T04:08:08.665Z,550.6
2023-01-06T04:09:11.199Z,550.4
2023-01-06T04:10:13.437Z,550.8
2023-01-06T04:11:15.972Z,551.2
2023-01-06T04:12:18.515Z,550.9
2023-01-06T04:13:20.769Z,550.7
2023-01-06T04:14:23.126Z,550.7
2023-01-06T04:15:25.363Z,550.6
2023-01-06T04:16:28.327Z,550.6
2023-01-06T04:17:31.228Z,550.6
2023-01-06T04:18:33.726Z,550.5
2023-01-06T04:19:36.247Z,550.4
2023-01-06T04:20:38.503Z,550.3
2023-01-06T04:21:40.469Z,550.4
2023-01-06T04:22:43.071Z,550.1
2023-01-06T04:23:45.622Z,550.4
2023-01-06T04:24:47.841Z,550
2023-01-06T04:25:50.346Z,550.4
2023-01-06T04:26:52.567Z,550.2
2023-01-06T04:27:54.791Z,550.2
2023-01-06T04:28:57.021Z,549.8
2023-01-06T04:29:59.642Z,550.3
2023-01-06T04:31:02.146Z,549.8
2023-01-06T04:32:04.645Z,550.1
2023-01-06T04:33:07.427Z,549.8
2023-01-06T04:34:09.385Z,550
2023-01-06T04:35:11.332Z,549.9
2023-01-06T04:36:13.317Z,549.9
2023-01-06T04:37:15.536Z,549.7
2023-01-06T04:38:17.873Z,549.9
2023-01-06T04:39:20.106Z,549.7
2023-01-06T04:40:22.596Z,549.9
2023-01-06T04:41:24.830Z,549.5
2023-01-06T04:42:27.326Z,549.9
2023-01-06T04:43:29.820Z,549.8
2023-01-06T04:44:32.362Z,549.6
2023-01-06T04:45:35.395Z,550.2
2023-01-06T04:46:37.936Z,549.9
2023-01-06T04:47:40.450Z,550
2023-01-06T04:48:42.958Z,550.2
2023-01-06T04:49:45.170Z,550
2023-01-06T04:50:47.673Z,549.8
2023-01-06T04:51:50.175Z,549.8
2023-01-06T04:52:52.426Z,549.4
2023-01-06T04:53:55.049Z,549.8
2023-01-06T04:54:57.552Z,550
2023-01-06T04:55:59.507Z,549.5
2023-01-06T04:57:02.040Z,549.9
2023-01-06T04:58:04.573Z,550.2
2023-01-06T04:59:06.781Z,549.6
2023-01-06T05:00:09.307Z,549.8
2023-01-06T05:01:12.849Z,550.2
2023-01-06T05:02:15.436Z,550.1
2023-01-06T05:03:17.704Z,550.4
2023-01-06T05:04:20.492Z,550.7
2023-01-06T05:05:23.005Z,550.6
2023-01-06T05:06:25.248Z,550.7
2023-01-06T05:07:27.472Z,550.5
2023-01-06T05:08:29.688Z,550.5
2023-01-06T05:09:32.074Z,550.6
2023-01-06T05:10:34.618Z,550.2
2023-01-06T05:11:36.615Z,550.1
2023-01-06T05:12:38.283Z,550
2023-01-06T05:13:40.532Z,549.9
2023-01-06T05:14:42.498Z,549.7
2023-01-06T05:15:45.008Z,549.3
2023-01-06T05:16:47.915Z,549.1
2023-01-06T05:17:49.600Z,549.4
2023-01-06T05:18:51.839Z,549.3
2023-01-06T05:19:54.617Z,549.3
2023-01-06T05:20:56.866Z,549
2023-01-06T05:21:59.117Z,550
2023-01-06T05:23:01.356Z,549.6
2023-01-06T05:24:03.584Z,549.7
2023-01-06T05:25:06.248Z,549.4
2023-01-06T05:26:08.494Z,549.5
2023-01-06T05:27:10.735Z,550
2023-01-06T05:28:12.990Z,549.9
2023-01-06T05:29:15.478Z,549.7
2023-01-06T05:30:18.070Z,549.7
2023-01-06T05:31:20.911Z,549.7
2023-01-06T05:32:23.539Z,549.6
2023-01-06T05:33:25.487Z,549.6
2023-01-06T05:34:28.020Z,549.5
2023-01-06T05:35:30.537Z,549.6
2023-01-06T05:36:33.041Z,549.7
2023-01-06T05:37:35.575Z,549.7
2023-01-06T05:38:38.130Z,549.8
2023-01-06T05:39:40.634Z,549.8
2023-01-06T05:40:43.295Z,549.7
2023-01-06T05:41:45.236Z,549.6
2023-01-06T05:42:47.729Z,549.8
2023-01-06T05:43:50.264Z,550
2023-01-06T05:44:52.784Z,549.9
2023-01-06T05:45:55.720Z,549.8
2023-01-06T05:46:57.992Z,549.7
2023-01-06T05:48:00.376Z,549.7
2023-01-06T05:49:02.885Z,550
2023-01-06T05:50:05.403Z,550
2023-01-06T05:51:08.238Z,549.4
2023-01-06T05:52:10.783Z,550.1
2023-01-06T05:53:13.300Z,550.5
2023-01-06T05:54:15.860Z,550.3
2023-01-06T05:55:18.362Z,550.5
2023-01-06T05:56:20.727Z,550.5
2023-01-06T05:57:23.256Z,549.9
2023-01-06T05:58:25.492Z,550
2023-01-06T05:59:27.990Z,550.1
2023-01-06T06:00:30.206Z,549.9
2023-01-06T06:01:32.856Z,550.3
2023-01-06T06:02:35.270Z,550.8
2023-01-06T06:03:38.254Z,550.6
2023-01-06T06:04:40.267Z,550.5
2023-01-06T06:05:42.766Z,550.8
2023-01-06T06:06:45.671Z,550.5
2023-01-06T06:07:48.178Z,551
2023-01-06T06:08:50.680Z,551
2023-01-06T06:09:52.991Z,550.3
2023-01-06T06:10:55.535Z,550.2
2023-01-06T06:11:58.169Z,550.1
2023-01-06T06:13:00.113Z,550.1
2023-01-06T06:14:02.649Z,549.8
2023-01-06T06:15:04.914Z,549.8
2023-01-06T06:16:07.966Z,549.6
2023-01-06T06:17:10.513Z,549.4
2023-01-06T06:18:13.001Z,549.6
2023-01-06T06:19:15.348Z,548.9
2023-01-06T06:20:17.587Z,548.8
2023-01-06T06:21:19.812Z,549.1
2023-01-06T06:22:22.576Z,549.3
2023-01-06T06:23:24.817Z,549.4
2023-01-06T06:24:27.354Z,549.3
2023-01-06T06:25:29.592Z,549.3
2023-01-06T06:26:32.193Z,549.5
2023-01-06T06:27:34.818Z,549.4
2023-01-06T06:28:37.331Z,549.2
2023-01-06T06:29:39.862Z,549.1
2023-01-06T06:30:42.405Z,549
2023-01-06T06:31:45.304Z,548.9
2023-01-06T06:32:47.847Z,549
2023-01-06T06:33:50.406Z,548.9
2023-01-06T06:34:53.061Z,549.4
2023-01-06T06:35:55.284Z,549.1
2023-01-06T06:36:57.516Z,549.2
2023-01-06T06:38:00.441Z,549
2023-01-06T06:39:02.672Z,549.2
2023-01-06T06:40:04.920Z,549.4
2023-01-06T06:41:07.416Z,549.2
2023-01-06T06:42:09.967Z,549.5
2023-01-06T06:43:12.303Z,549.5
2023-01-06T06:44:14.035Z,549.7
2023-01-06T06:45:16.245Z,549.8
2023-01-06T06:46:18.773Z,549.5
2023-01-06T06:47:21.041Z,550.3
2023-01-06T06:48:23.554Z,549.7
2023-01-06T06:49:26.066Z,550.5
2023-01-06T06:50:28.732Z,550
2023-01-06T06:51:31.243Z,550.1
2023-01-06T06:52:33.479Z,550.7
2023-01-06T06:53:36.280Z,550.5
2023-01-06T06:54:38.784Z,550.7
2023-01-06T06:55:41.331Z,550.6
2023-01-06T06:56:43.851Z,550.7
2023-01-06T06:57:46.075Z,550.6
2023-01-06T06:58:48.132Z,550.8
2023-01-06T06:59:50.394Z,550.5
2023-01-06T07:00:52.958Z,550.7
2023-01-06T07:01:56.158Z,550.9
2023-01-06T07:02:58.153Z,550.7
2023-01-06T07:04:00.665Z,550.6
2023-01-06T07:05:02.932Z,550.8
2023-01-06T07:06:05.323Z,550.8
2023-01-06T07:07:07.569Z,550.4
2023-01-06T07:08:10.071Z,550.4
2023-01-06T07:09:12.673Z,550.7
2023-01-06T07:10:15.268Z,550.6
2023-01-06T07:11:17.811Z,550.9
2023-01-06T07:12:20.327Z,550.6
2023-01-06T07:13:22.622Z,550.7
2023-01-06T07:14:24.699Z,550.9
2023-01-06T07:15:26.638Z,550.6
2023-01-06T07:16:28.930Z,550.7
2023-01-06T07:17:31.191Z,550.7
2023-01-06T07:18:33.765Z,550.7
2023-01-06T07:19:36.413Z,551
2023-01-06T07:20:38.954Z,551.1
2023-01-06T07:21:41.615Z,550.6
2023-01-06T07:22:44.114Z,550.6
2023-01-06T07:23:46.647Z,550.4
2023-01-06T07:24:49.537Z,550.2
2023-01-06T07:25:52.053Z,550.6
2023-01-06T07:26:54.559Z,550.7
2023-01-06T07:27:57.084Z,550.3
2023-01-06T07:28:59.346Z,550.5
2023-01-06T07:30:02.006Z,550.7
2023-01-06T07:31:04.855Z,550.6
2023-01-06T07:32:10.721Z,550.4
2023-01-06T07:33:12.937Z,550.6
2023-01-06T07:34:15.454Z,550.1
2023-01-06T07:35:17.690Z,550.7
2023-01-06T07:36:19.942Z,550.5
2023-01-06T07:37:22.585Z,550.8
2023-01-06T07:38:24.849Z,550.8
2023-01-06T07:39:27.371Z,550.7
2023-01-06T07:40:30.042Z,550.6
2023-01-06T07:41:32.583Z,551
2023-01-06T07:42:34.824Z,551.3
2023-01-06T07:43:37.371Z,551.5
2023-01-06T07:44:39.608Z,551.5
2023-01-06T07:45:42.282Z,551.8
2023-01-06T07:46:44.790Z,551.8
2023-01-06T07:47:46.758Z,552.2
2023-01-06T07:48:48.980Z,552.3
2023-01-06T07:49:51.201Z,552.6
2023-01-06T07:50:53.764Z,552.7
2023-01-06T07:51:56.846Z,552.2
2023-01-06T07:52:59.588Z,552.3
2023-01-06T07:54:01.608Z,552.3
2023-01-06T07:55:03.855Z,552.7
2023-01-06T07:56:06.773Z,552.5
2023-01-06T07:57:09.010Z,552.6
2023-01-06T07:58:11.525Z,552.4
2023-01-06T07:59:13.764Z,552.2
2023-01-06T08:00:16.273Z,552
2023-01-06T08:01:19.655Z,551.9
2023-01-06T08:02:22.823Z,552.2
2023-01-06T08:03:26.014Z,552.4
2023-01-06T08:04:28.613Z,552.2
2023-01-06T08:05:31.123Z,552.5
2023-01-06T08:06:33.372Z,552.2
2023-01-06T08:07:35.597Z,552.4
2023-01-06T08:08:37.958Z,552
2023-01-06T08:09:40.462Z,552.3
2023-01-06T08:10:43.046Z,552.4
2023-01-06T08:11:45.636Z,552.2
2023-01-06T08:12:47.899Z,552.2
2023-01-06T08:13:50.151Z,552
2023-01-06T08:14:52.673Z,551.9
2023-01-06T08:15:54.959Z,551.8
2023-01-06T08:16:57.613Z,551.3
2023-01-06T08:17:59.563Z,551.2
2023-01-06T08:19:01.881Z,551.2
2023-01-06T08:20:04.406Z,551.1
2023-01-06T08:21:06.652Z,551
2023-01-06T08:22:08.868Z,550.7
2023-01-06T08:23:11.418Z,550.6
2023-01-06T08:24:14.162Z,550.7
2023-01-06T08:25:16.439Z,550.8
2023-01-06T08:26:18.976Z,550.9
2023-01-06T08:27:21.929Z,551.1
2023-01-06T08:28:24.430Z,551.3
2023-01-06T08:29:26.105Z,551.5
2023-01-06T08:30:28.371Z,551.4
2023-01-06T08:31:31.381Z,551.4
2023-01-06T08:32:33.754Z,551.4
2023-01-06T08:33:36.027Z,551.7
2023-01-06T08:34:38.295Z,551.7
2023-01-06T08:35:40.285Z,552.4
2023-01-06T08:36:42.533Z,552.2
2023-01-06T08:37:45.058Z,552.6
2023-01-06T08:38:47.520Z,552.6
2023-01-06T08:39:50.025Z,553
2023-01-06T08:40:52.537Z,552.9
2023-01-06T08:41:54.744Z,553
2023-01-06T08:42:57.626Z,553.2
2023-01-06T08:43:59.598Z,553.7
2023-01-06T08:45:02.184Z,553.4
2023-01-06T08:46:04.823Z,553.2
2023-01-06T08:47:06.818Z,553.2
2023-01-06T08:48:09.473Z,553.1
2023-01-06T08:49:12.036Z,552.6
2023-01-06T08:50:14.335Z,552.7
2023-01-06T08:51:16.590Z,552.4
2023-01-06T08:52:19.162Z,552.5
2023-01-06T08:53:21.703Z,552
2023-01-06T08:54:24.215Z,552
2023-01-06T08:55:26.872Z,551.8
2023-01-06T08:56:29.396Z,552.1
2023-01-06T08:57:31.923Z,551.7
2023-01-06T08:58:34.815Z,551.8
2023-01-06T08:59:37.331Z,551.8
2023-01-06T09:00:39.852Z,551.6
2023-01-06T09:01:42.857Z,551.9
2023-01-06T09:02:45.398Z,551.9
2023-01-06T09:03:48.068Z,551.1
2023-01-06T09:04:50.816Z,551
2023-01-06T09:05:53.081Z,551
2023-01-06T09:06:57.917Z,550.3
2023-01-06T09:08:00.438Z,550.8
2023-01-06T09:09:02.717Z,551.2
2023-01-06T09:10:04.661Z,551.5
2023-01-06T09:11:07.306Z,551.1
2023-01-06T09:12:09.746Z,550.9
2023-01-06T09:13:12.268Z,550.6
2023-01-06T09:14:15.185Z,550.6
2023-01-06T09:15:17.782Z,550.4
2023-01-06T09:16:20.712Z,550.3
2023-01-06T09:17:22.967Z,550.5
2023-01-06T09:18:25.217Z,550.6
2023-01-06T09:19:27.294Z,550.1
2023-01-06T09:20:29.809Z,550.1
2023-01-06T09:21:32.354Z,550
2023-01-06T09:22:34.889Z,549.7
2023-01-06T09:23:37.404Z,549.2
2023-01-06T09:24:39.939Z,549.5
2023-01-06T09:25:42.166Z,549.7
2023-01-06T09:26:44.554Z,549.5
2023-01-06T09:27:47.219Z,549.5
2023-01-06T09:28:49.538Z,549.2
2023-01-06T09:29:52.458Z,549.1
2023-01-06T09:30:55.343Z,549.2
2023-01-06T09:31:57.890Z,548.7
2023-01-06T09:33:00.136Z,548.7
2023-01-06T09:34:02.365Z,548.7
2023-01-06T09:35:04.913Z,548.3
2023-01-06T09:36:07.147Z,547.8
2023-01-06T09:37:09.419Z,547.5
2023-01-06T09:38:11.632Z,547.2
2023-01-06T09:39:14.155Z,547.1
2023-01-06T09:40:16.682Z,547.3
2023-01-06T09:41:18.957Z,547
2023-01-06T09:42:21.680Z,546.6
2023-01-06T09:43:23.973Z,547.2
2023-01-06T09:44:26.531Z,546.9
2023-01-06T09:45:29.036Z,547.2
2023-01-06T09:46:31.465Z,547.6
2023-01-06T09:47:33.998Z,547.3
2023-01-06T09:48:36.219Z,547.9
2023-01-06T09:49:37.645Z,546.7
2023-01-06T09:50:40.012Z,546.8
2023-01-06T09:51:42.552Z,546.2
2023-01-06T09:52:45.125Z,546
2023-01-06T09:53:47.404Z,546.3
2023-01-06T09:54:49.662Z,546.4
2023-01-06T09:55:52.154Z,546.5
2023-01-06T09:56:54.172Z,546.1
2023-01-06T09:59:01.883Z,545.8
2023-01-06T10:00:04.157Z,546
2023-01-06T10:01:07.566Z,546
2023-01-06T10:02:10.511Z,546.5
2023-01-06T10:03:12.781Z,545.7
2023-01-06T10:04:14.708Z,546.1
2023-01-06T10:05:17.010Z,546.1
2023-01-06T10:06:20.181Z,546.6
2023-01-06T10:07:21.944Z,546.9
2023-01-06T10:08:24.467Z,546.4
2023-01-06T10:09:26.985Z,547
2023-01-06T10:10:29.540Z,547.2
2023-01-06T10:11:31.789Z,547.2
2023-01-06T10:12:34.236Z,547.1
2023-01-06T10:13:36.890Z,547.2
2023-01-06T10:14:39.196Z,547.3
2023-01-06T10:15:41.423Z,546.7
2023-01-06T10:16:44.206Z,547.2
2023-01-06T10:17:46.727Z,547
2023-01-06T10:18:48.963Z,547
2023-01-06T10:19:51.491Z,547.4
2023-01-06T10:20:53.749Z,547.6
2023-01-06T10:21:56.387Z,547.4
2023-01-06T10:22:58.632Z,547.6
2023-01-06T10:24:01.210Z,547.9
2023-01-06T10:25:03.783Z,548.1
2023-01-06T10:26:06.300Z,548.1
2023-01-06T10:27:10.905Z,548.4
2023-01-06T10:28:13.180Z,548.6
2023-01-06T10:29:15.587Z,548.7
2023-01-06T10:30:17.789Z,548.8
2023-01-06T10:31:20.411Z,549.2
2023-01-06T10:32:23.051Z,549.5
2023-01-06T10:34:28.891Z,549.5
2023-01-06T10:35:31.149Z,549.5
2023-01-06T10:36:33.527Z,549.5
2023-01-06T10:37:35.925Z,549.5
2023-01-06T10:38:38.501Z,549.5
2023-01-06T10:39:41.055Z,549.1
2023-01-06T10:40:43.571Z,548.7
2023-01-06T10:41:46.067Z,548.8
2023-01-06T10:42:48.074Z,548.8
2023-01-06T10:43:50.108Z,548.8
2023-01-06T10:44:52.161Z,548.9
2023-01-06T10:45:54.392Z,549.1
2023-01-06T10:46:57.006Z,549.1
2023-01-06T10:47:59.654Z,548.6
2023-01-06T10:49:02.157Z,549.5
2023-01-06T10:50:04.152Z,549.4
2023-01-06T10:51:06.100Z,550
2023-01-06T10:52:08.640Z,549.7
2023-01-06T10:53:11.303Z,549.6
2023-01-06T10:54:13.277Z,549.8
2023-01-06T10:55:15.544Z,549.6
2023-01-06T10:56:18.061Z,549.6
2023-01-06T10:57:20.300Z,549.1
2023-01-06T10:58:22.541Z,548.9
2023-01-06T10:59:25.103Z,548.6
2023-01-06T11:00:27.770Z,548.9
2023-01-06T11:01:32.204Z,549.1
2023-01-06T11:02:36.778Z,548.8
2023-01-06T11:03:40.259Z,548.8
2023-01-06T11:04:42.845Z,549
2023-01-06T11:05:44.263Z,549.2
2023-01-06T11:06:46.799Z,549
2023-01-06T11:07:49.414Z,549.5
2023-01-06T11:08:52.103Z,549.3
2023-01-06T11:09:54.339Z,549.7
2023-01-06T11:10:56.341Z,549.3
2023-01-06T11:11:58.057Z,549
2023-01-06T11:13:00.579Z,549.1
2023-01-06T11:14:02.909Z,548.8
2023-01-06T11:15:05.151Z,548.6
2023-01-06T11:16:08.028Z,548.8
2023-01-06T11:17:10.589Z,548.3
2023-01-06T11:18:13.108Z,548
2023-01-06T11:19:15.989Z,548.2
2023-01-06T11:20:18.681Z,548.7
2023-01-06T11:21:21.243Z,548.4
2023-01-06T11:22:23.500Z,548.6
2023-01-06T11:23:26.064Z,548.4
2023-01-06T11:24:28.408Z,549.1
2023-01-06T11:25:30.976Z,548.8
2023-01-06T11:26:33.481Z,549
2023-01-06T11:27:35.446Z,548.5
2023-01-06T11:28:37.133Z,548.6
2023-01-06T11:29:38.833Z,548.8
2023-01-06T11:30:41.076Z,548.5
2023-01-06T11:31:44.078Z,549.2
2023-01-06T11:32:46.612Z,548.5
2023-01-06T11:33:49.106Z,549
2023-01-06T11:34:52.045Z,549.1
2023-01-06T11:35:54.560Z,549.3
2023-01-06T11:36:57.093Z,549.6
2023-01-06T11:37:59.045Z,549.7
2023-01-06T11:39:01.634Z,550.1
2023-01-06T11:41:08.907Z,550.1
2023-01-06T11:42:11.141Z,550.2
2023-01-06T11:43:13.425Z,550.4
2023-01-06T11:44:15.387Z,550.4
2023-01-06T11:45:17.318Z,550.8
2023-01-06T11:46:19.894Z,551
2023-01-06T11:47:22.613Z,551
2023-01-06T11:48:25.129Z,551.4
2023-01-06T11:49:27.091Z,551.1
2023-01-06T11:50:30.011Z,551
2023-01-06T11:51:32.538Z,551.1
2023-01-06T11:52:35.107Z,550.8
2023-01-06T11:53:37.605Z,551.4
2023-01-06T11:54:40.165Z,550.8
2023-01-06T11:55:42.534Z,551
2023-01-06T11:56:44.491Z,551.3
2023-01-06T11:57:46.697Z,551.5
2023-01-06T11:58:49.202Z,550.9
2023-01-06T11:59:51.130Z,551.2
2023-01-06T12:00:53.443Z,552.1
2023-01-06T12:01:56.955Z,551.9
2023-01-06T12:02:59.646Z,552.1
2023-01-06T12:04:02.157Z,551.8
2023-01-06T12:05:04.742Z,551.9
2023-01-06T12:06:07.654Z,552.3
2023-01-06T12:07:10.155Z,552.6
2023-01-06T12:08:12.395Z,552.3
2023-01-06T12:09:14.611Z,552.8
2023-01-06T12:10:16.831Z,554
2023-01-06T12:11:19.472Z,553.1
2023-01-06T12:12:22.009Z,553.2
2023-01-06T12:13:24.300Z,553
2023-01-06T12:15:31.779Z,552.4
2023-01-06T12:16:35.062Z,553
2023-01-06T12:17:38.525Z,553.4
2023-01-06T12:18:41.270Z,553.4
2023-01-06T12:19:43.510Z,553.9
2023-01-06T12:20:46.029Z,553.3
2023-01-06T12:21:48.640Z,553.7
2023-01-06T12:22:50.886Z,552.7
2023-01-06T12:23:53.115Z,553.3
2023-01-06T12:24:55.637Z,553.7
2023-01-06T12:25:58.193Z,553
2023-01-06T12:27:00.843Z,552.6
2023-01-06T12:28:03.386Z,552.6
2023-01-06T12:29:05.956Z,553.2
2023-01-06T12:30:08.205Z,553.9
2023-01-06T12:31:11.272Z,553.5
2023-01-06T12:32:13.524Z,554.2
2023-01-06T12:33:15.788Z,554
2023-01-06T12:34:18.498Z,554.4
2023-01-06T12:35:20.999Z,553.8
2023-01-06T12:36:23.478Z,554.6
2023-01-06T12:37:26.262Z,554.5
2023-01-06T12:38:28.517Z,554.6
2023-01-06T12:39:31.062Z,554.6
2023-01-06T12:40:33.609Z,554.9
2023-01-06T12:41:35.282Z,555
2023-01-06T12:42:37.903Z,555
2023-01-06T12:43:40.405Z,554.8
2023-01-06T12:44:42.948Z,554.3
2023-01-06T12:46:50.477Z,554.4
2023-01-06T12:47:56.473Z,553.9
2023-01-06T12:48:58.169Z,553.5
2023-01-06T12:50:00.558Z,553.6
2023-01-06T12:51:03.075Z,553
2023-01-06T12:52:05.332Z,553.5
2023-01-06T12:54:13.224Z,553.6
2023-01-06T12:55:15.728Z,553.8
2023-01-06T12:56:17.966Z,552.5
2023-01-06T12:57:20.510Z,553.1
2023-01-06T12:58:22.860Z,553.1
2023-01-06T12:59:24.813Z,553.3
2023-01-06T13:00:27.365Z,553.9
2023-01-06T13:01:30.377Z,553.6
2023-01-06T13:02:34.342Z,553.4
2023-01-06T13:03:39.653Z,553.3
2023-01-06T13:04:41.933Z,553
2023-01-06T13:05:44.556Z,552.5
2023-01-06T13:06:47.075Z,553.2
2023-01-06T13:07:49.453Z,552.7
2023-01-06T13:08:51.437Z,552.8
2023-01-06T13:09:54.211Z,552.5
2023-01-06T13:10:56.729Z,552.1
2023-01-06T13:11:58.400Z,552.6
2023-01-06T13:13:00.963Z,552.4
2023-01-06T13:14:03.367Z,552.4
2023-01-06T13:15:05.343Z,552.1
2023-01-06T13:16:07.291Z,552.4
2023-01-06T13:17:09.824Z,552.4
2023-01-06T13:18:12.381Z,552.6
2023-01-06T13:19:14.617Z,552.9
2023-01-06T13:20:16.565Z,553.2
2023-01-06T13:21:18.998Z,553.3
2023-01-06T13:22:21.530Z,553.1
2023-01-06T13:23:24.880Z,553.3
2023-01-06T13:24:30.157Z,553.3
2023-01-06T13:25:33.037Z,553.5
2023-01-06T13:26:35.307Z,553.5
2023-01-06T13:27:37.555Z,553.6
2023-01-06T13:28:39.775Z,553.6
2023-01-06T13:29:42.406Z,553.2
2023-01-06T13:30:45.210Z,553.1
2023-01-06T13:31:47.474Z,553.4
2023-01-06T13:32:50.006Z,552.9
2023-01-06T13:33:52.266Z,553.4
2023-01-06T13:34:54.020Z,553.5
2023-01-06T13:35:56.281Z,553.2
2023-01-06T13:36:59.002Z,553